sensor_id;sensor_type;location;lat;lon;timestamp;temperature;humidity
27795;DHT22;15176;50.844;4.412;2022-11-20T00:01:04;8.30;99.90
27795;DHT22;15176;50.844;4.412;2022-11-20T00:03:30;8.40;99.90
27795;DHT22;15176;50.844;4.412;2022-11-20T00:06:00;8.50;99.90
27795;DHT22;15176;50.844;4.412;2022-11-20T00:08:26;8.60;99.90
27795;DHT22;15176;50.844;4.412;2022-11-20T00:10:52;8.60;99.90
27795;DHT22;15176;50.844;4.412;2022-11-20T00:13:17;8.50;99.90
27795;DHT22;15176;50.844;4.412;2022-11-20T00:15:43;8.30;99.90
27795;DHT22;15176;50.844;4.412;2022-11-20T00:18:09;8.30;99.90
27795;DHT22;15176;50.844;4.412;2022-11-20T00:20:34;8.50;99.90
27795;DHT22;15176;50.844;4.412;2022-11-20T00:23:00;8.40;99.90
27795;DHT22;15176;50.844;4.412;2022-11-20T00:25:26;7.90;99.90
27795;DHT22;15176;50.844;4.412;2022-11-20T00:27:52;7.90;99.90
27795;DHT22;15176;50.844;4.412;2022-11-20T00:30:18;7.90;99.90
27795;DHT22;15176;50.844;4.412;2022-11-20T00:32:43;8.10;99.90
27795;DHT22;15176;50.844;4.412;2022-11-20T00:35:09;8.10;99.90
27795;DHT22;15176;50.844;4.412;2022-11-20T00:37:35;8.30;99.90
27795;DHT22;15176;50.844;4.412;2022-11-20T00:40:01;8.40;99.90
27795;DHT22;15176;50.844;4.412;2022-11-20T00:42:26;8.40;99.90
27795;DHT22;15176;50.844;4.412;2022-11-20T00:44:52;8.30;99.90
27795;DHT22;15176;50.844;4.412;2022-11-20T00:47:18;8.10;99.90
27795;DHT22;15176;50.844;4.412;2022-11-20T00:49:43;7.80;99.90
27795;DHT22;15176;50.844;4.412;2022-11-20T00:52:09;7.60;99.90
27795;DHT22;15176;50.844;4.412;2022-11-20T00:54:35;7.80;99.90
27795;DHT22;15176;50.844;4.412;2022-11-20T00:57:00;8.00;99.90
27795;DHT22;15176;50.844;4.412;2022-11-20T00:59:26;7.70;99.90
27795;DHT22;15176;50.844;4.412;2022-11-20T01:01:52;7.60;99.90
27795;DHT22;15176;50.844;4.412;2022-11-20T01:04:19;7.80;99.90
27795;DHT22;15176;50.844;4.412;2022-11-20T01:06:44;7.80;99.90
27795;DHT22;15176;50.844;4.412;2022-11-20T01:09:12;7.90;99.90
27795;DHT22;15176;50.844;4.412;2022-11-20T01:11:41;8.00;99.90
27795;DHT22;15176;50.844;4.412;2022-11-20T01:14:10;8.00;99.90
27795;DHT22;15176;50.844;4.412;2022-11-20T01:16:39;8.10;99.90
27795;DHT22;15176;50.844;4.412;2022-11-20T01:19:09;7.90;99.90
27795;DHT22;15176;50.844;4.412;2022-11-20T01:21:37;8.00;99.90
27795;DHT22;15176;50.844;4.412;2022-11-20T01:24:04;8.00;99.90
27795;DHT22;15176;50.844;4.412;2022-11-20T01:26:33;8.00;99.90
27795;DHT22;15176;50.844;4.412;2022-11-20T01:28:59;8.00;99.90
27795;DHT22;15176;50.844;4.412;2022-11-20T01:31:32;7.90;99.90
27795;DHT22;15176;50.844;4.412;2022-11-20T01:34:00;7.90;99.90
27795;DHT22;15176;50.844;4.412;2022-11-20T01:36:28;7.80;99.90
27795;DHT22;15176;50.844;4.412;2022-11-20T01:38:56;7.80;99.90
27795;DHT22;15176;50.844;4.412;2022-11-20T01:41:23;7.90;99.90
27795;DHT22;15176;50.844;4.412;2022-11-20T01:44:12;7.70;99.90
27795;DHT22;15176;50.844;4.412;2022-11-20T01:46:58;7.90;99.90
27795;DHT22;15176;50.844;4.412;2022-11-20T01:49:41;7.90;99.90
27795;DHT22;15176;50.844;4.412;2022-11-20T01:52:17;7.70;99.90
27795;DHT22;15176;50.844;4.412;2022-11-20T01:54:50;7.70;99.90
27795;DHT22;15176;50.844;4.412;2022-11-20T01:57:23;7.60;99.90
27795;DHT22;15176;50.844;4.412;2022-11-20T01:59:57;7.70;99.90
27795;DHT22;15176;50.844;4.412;2022-11-20T02:02:25;7.90;99.90
27795;DHT22;15176;50.844;4.412;2022-11-20T02:04:53;8.00;99.90
27795;DHT22;15176;50.844;4.412;2022-11-20T02:07:20;8.00;99.90
27795;DHT22;15176;50.844;4.412;2022-11-20T02:09:46;7.90;99.90
27795;DHT22;15176;50.844;4.412;2022-11-20T02:12:12;7.70;99.90
27795;DHT22;15176;50.844;4.412;2022-11-20T02:14:58;7.90;99.90
27795;DHT22;15176;50.844;4.412;2022-11-20T02:17:24;7.80;99.90
27795;DHT22;15176;50.844;4.412;2022-11-20T02:19:51;7.80;99.90
27795;DHT22;15176;50.844;4.412;2022-11-20T02:22:30;8.00;99.90
27795;DHT22;15176;50.844;4.412;2022-11-20T02:24:58;8.20;99.90
27795;DHT22;15176;50.844;4.412;2022-11-20T02:27:26;8.20;99.90
27795;DHT22;15176;50.844;4.412;2022-11-20T02:34:48;7.80;99.90
27795;DHT22;15176;50.844;4.412;2022-11-20T02:37:14;7.70;99.90
27795;DHT22;15176;50.844;4.412;2022-11-20T02:39:40;7.80;99.90
27795;DHT22;15176;50.844;4.412;2022-11-20T02:42:07;7.80;99.90
27795;DHT22;15176;50.844;4.412;2022-11-20T02:44:33;8.10;99.90
27795;DHT22;15176;50.844;4.412;2022-11-20T02:46:59;8.10;99.90
27795;DHT22;15176;50.844;4.412;2022-11-20T02:49:24;7.80;99.90
27795;DHT22;15176;50.844;4.412;2022-11-20T02:51:50;7.70;99.90
27795;DHT22;15176;50.844;4.412;2022-11-20T02:54:16;7.70;99.90
27795;DHT22;15176;50.844;4.412;2022-11-20T02:56:42;7.50;99.90
27795;DHT22;15176;50.844;4.412;2022-11-20T02:59:09;7.60;99.90
27795;DHT22;15176;50.844;4.412;2022-11-20T03:01:35;7.40;99.90
27795;DHT22;15176;50.844;4.412;2022-11-20T03:04:01;7.40;99.90
27795;DHT22;15176;50.844;4.412;2022-11-20T03:06:27;7.40;99.90
27795;DHT22;15176;50.844;4.412;2022-11-20T03:08:53;7.50;99.90
27795;DHT22;15176;50.844;4.412;2022-11-20T03:11:19;7.20;99.90
27795;DHT22;15176;50.844;4.412;2022-11-20T03:13:44;7.30;99.90
27795;DHT22;15176;50.844;4.412;2022-11-20T03:16:13;7.30;99.90
27795;DHT22;15176;50.844;4.412;2022-11-20T03:18:40;7.00;99.90
27795;DHT22;15176;50.844;4.412;2022-11-20T03:21:07;6.90;99.90
27795;DHT22;15176;50.844;4.412;2022-11-20T03:23:34;6.70;99.90
27795;DHT22;15176;50.844;4.412;2022-11-20T03:26:22;6.70;99.90
27795;DHT22;15176;50.844;4.412;2022-11-20T03:28:56;6.90;99.90
27795;DHT22;15176;50.844;4.412;2022-11-20T03:31:25;6.90;99.90
27795;DHT22;15176;50.844;4.412;2022-11-20T03:33:51;7.00;99.90
27795;DHT22;15176;50.844;4.412;2022-11-20T03:36:19;7.20;99.90
27795;DHT22;15176;50.844;4.412;2022-11-20T03:38:45;7.40;99.90
27795;DHT22;15176;50.844;4.412;2022-11-20T03:41:19;7.20;99.90
27795;DHT22;15176;50.844;4.412;2022-11-20T03:43:49;7.10;99.90
27795;DHT22;15176;50.844;4.412;2022-11-20T03:46:16;7.30;99.90
27795;DHT22;15176;50.844;4.412;2022-11-20T03:48:41;7.20;99.90
27795;DHT22;15176;50.844;4.412;2022-11-20T03:51:16;7.30;99.90
27795;DHT22;15176;50.844;4.412;2022-11-20T03:53:44;7.30;99.90
27795;DHT22;15176;50.844;4.412;2022-11-20T03:56:11;7.50;99.90
27795;DHT22;15176;50.844;4.412;2022-11-20T03:58:39;7.50;99.90
27795;DHT22;15176;50.844;4.412;2022-11-20T04:01:10;7.60;99.90
27795;DHT22;15176;50.844;4.412;2022-11-20T04:03:37;7.40;99.90
27795;DHT22;15176;50.844;4.412;2022-11-20T04:06:07;7.50;99.90
27795;DHT22;15176;50.844;4.412;2022-11-20T04:08:34;7.30;99.90
27795;DHT22;15176;50.844;4.412;2022-11-20T04:11:33;7.20;99.90
27795;DHT22;15176;50.844;4.412;2022-11-20T04:14:01;7.30;99.90
27795;DHT22;15176;50.844;4.412;2022-11-20T04:16:29;7.40;99.90
27795;DHT22;15176;50.844;4.412;2022-11-20T04:18:57;7.40;99.90
27795;DHT22;15176;50.844;4.412;2022-11-20T04:21:24;7.40;99.90
27795;DHT22;15176;50.844;4.412;2022-11-20T04:23:51;7.50;99.90
27795;DHT22;15176;50.844;4.412;2022-11-20T04:26:22;7.70;99.90
27795;DHT22;15176;50.844;4.412;2022-11-20T04:28:48;7.90;99.90
27795;DHT22;15176;50.844;4.412;2022-11-20T04:31:16;8.10;99.90
27795;DHT22;15176;50.844;4.412;2022-11-20T04:33:44;8.30;99.90
27795;DHT22;15176;50.844;4.412;2022-11-20T04:36:19;8.00;99.90
27795;DHT22;15176;50.844;4.412;2022-11-20T04:38:45;7.70;99.90
27795;DHT22;15176;50.844;4.412;2022-11-20T04:41:18;7.70;99.90
27795;DHT22;15176;50.844;4.412;2022-11-20T04:43:52;7.60;99.90
27795;DHT22;15176;50.844;4.412;2022-11-20T04:46:19;7.70;99.90
27795;DHT22;15176;50.844;4.412;2022-11-20T04:48:45;7.80;99.90
27795;DHT22;15176;50.844;4.412;2022-11-20T04:51:11;7.80;99.90
27795;DHT22;15176;50.844;4.412;2022-11-20T04:53:38;8.00;99.90
27795;DHT22;15176;50.844;4.412;2022-11-20T04:56:06;7.90;99.90
27795;DHT22;15176;50.844;4.412;2022-11-20T04:58:33;8.10;99.90
27795;DHT22;15176;50.844;4.412;2022-11-20T05:01:29;8.30;99.90
27795;DHT22;15176;50.844;4.412;2022-11-20T05:03:54;8.40;99.90
27795;DHT22;15176;50.844;4.412;2022-11-20T05:06:21;8.50;99.90
27795;DHT22;15176;50.844;4.412;2022-11-20T05:08:47;8.50;99.90
27795;DHT22;15176;50.844;4.412;2022-11-20T05:11:18;8.50;99.90
27795;DHT22;15176;50.844;4.412;2022-11-20T05:13:45;8.20;99.90
27795;DHT22;15176;50.844;4.412;2022-11-20T05:16:17;8.30;99.90
27795;DHT22;15176;50.844;4.412;2022-11-20T05:18:43;7.90;99.90
27795;DHT22;15176;50.844;4.412;2022-11-20T05:21:09;7.90;99.90
27795;DHT22;15176;50.844;4.412;2022-11-20T05:23:36;8.10;99.90
27795;DHT22;15176;50.844;4.412;2022-11-20T05:26:02;8.00;99.90
27795;DHT22;15176;50.844;4.412;2022-11-20T05:28:29;7.90;99.90
27795;DHT22;15176;50.844;4.412;2022-11-20T05:30:55;7.80;99.90
27795;DHT22;15176;50.844;4.412;2022-11-20T05:33:22;7.90;99.90
27795;DHT22;15176;50.844;4.412;2022-11-20T05:35:47;7.90;99.90
27795;DHT22;15176;50.844;4.412;2022-11-20T05:38:14;8.10;99.90
27795;DHT22;15176;50.844;4.412;2022-11-20T05:40:39;8.20;99.90
27795;DHT22;15176;50.844;4.412;2022-11-20T05:43:05;8.50;99.90
27795;DHT22;15176;50.844;4.412;2022-11-20T05:45:31;8.70;99.90
27795;DHT22;15176;50.844;4.412;2022-11-20T05:48:00;8.70;99.90
27795;DHT22;15176;50.844;4.412;2022-11-20T05:50:27;9.00;99.90
27795;DHT22;15176;50.844;4.412;2022-11-20T05:52:53;8.50;99.90
27795;DHT22;15176;50.844;4.412;2022-11-20T05:55:18;8.20;99.90
27795;DHT22;15176;50.844;4.412;2022-11-20T05:57:45;7.80;99.90
27795;DHT22;15176;50.844;4.412;2022-11-20T06:00:12;8.30;99.90
27795;DHT22;15176;50.844;4.412;2022-11-20T06:02:38;8.30;99.90
27795;DHT22;15176;50.844;4.412;2022-11-20T06:05:05;7.90;99.90
27795;DHT22;15176;50.844;4.412;2022-11-20T06:07:31;7.60;99.90
27795;DHT22;15176;50.844;4.412;2022-11-20T06:09:57;7.40;99.90
27795;DHT22;15176;50.844;4.412;2022-11-20T06:12:22;7.40;99.90
27795;DHT22;15176;50.844;4.412;2022-11-20T06:14:48;7.30;99.90
27795;DHT22;15176;50.844;4.412;2022-11-20T06:17:13;7.20;99.90
27795;DHT22;15176;50.844;4.412;2022-11-20T06:19:39;7.20;99.90
27795;DHT22;15176;50.844;4.412;2022-11-20T06:22:05;7.70;99.90
27795;DHT22;15176;50.844;4.412;2022-11-20T06:24:31;7.70;99.90
27795;DHT22;15176;50.844;4.412;2022-11-20T06:26:56;8.00;99.90
27795;DHT22;15176;50.844;4.412;2022-11-20T06:29:22;8.10;99.90
27795;DHT22;15176;50.844;4.412;2022-11-20T06:31:48;8.30;99.90
27795;DHT22;15176;50.844;4.412;2022-11-20T06:34:16;8.10;99.90
27795;DHT22;15176;50.844;4.412;2022-11-20T06:36:42;8.10;99.90
27795;DHT22;15176;50.844;4.412;2022-11-20T06:39:08;7.90;99.90
27795;DHT22;15176;50.844;4.412;2022-11-20T06:41:34;7.40;99.90
27795;DHT22;15176;50.844;4.412;2022-11-20T06:43:59;7.20;99.90
27795;DHT22;15176;50.844;4.412;2022-11-20T06:46:25;7.00;99.90
27795;DHT22;15176;50.844;4.412;2022-11-20T06:48:51;7.50;99.90
27795;DHT22;15176;50.844;4.412;2022-11-20T06:51:16;7.60;99.90
27795;DHT22;15176;50.844;4.412;2022-11-20T06:53:42;7.80;99.90
27795;DHT22;15176;50.844;4.412;2022-11-20T06:56:08;7.90;99.90
27795;DHT22;15176;50.844;4.412;2022-11-20T06:58:35;8.00;99.90
27795;DHT22;15176;50.844;4.412;2022-11-20T07:01:05;7.70;99.90
27795;DHT22;15176;50.844;4.412;2022-11-20T07:03:31;7.80;99.90
27795;DHT22;15176;50.844;4.412;2022-11-20T07:05:59;7.70;99.90
27795;DHT22;15176;50.844;4.412;2022-11-20T07:08:26;7.70;99.90
27795;DHT22;15176;50.844;4.412;2022-11-20T07:10:52;7.70;99.90
27795;DHT22;15176;50.844;4.412;2022-11-20T07:13:25;7.50;99.90
27795;DHT22;15176;50.844;4.412;2022-11-20T07:15:51;8.00;99.90
27795;DHT22;15176;50.844;4.412;2022-11-20T07:18:16;7.90;99.90
27795;DHT22;15176;50.844;4.412;2022-11-20T07:20:42;8.20;99.90
27795;DHT22;15176;50.844;4.412;2022-11-20T07:23:14;8.60;99.90
27795;DHT22;15176;50.844;4.412;2022-11-20T07:25:41;8.70;99.90
27795;DHT22;15176;50.844;4.412;2022-11-20T07:28:06;9.00;99.90
27795;DHT22;15176;50.844;4.412;2022-11-20T07:30:32;8.80;99.90
27795;DHT22;15176;50.844;4.412;2022-11-20T07:33:08;8.90;99.90
27795;DHT22;15176;50.844;4.412;2022-11-20T07:35:35;9.00;99.90
27795;DHT22;15176;50.844;4.412;2022-11-20T07:38:01;9.10;99.90
27795;DHT22;15176;50.844;4.412;2022-11-20T07:40:27;9.40;99.90
27795;DHT22;15176;50.844;4.412;2022-11-20T07:42:54;9.70;99.90
27795;DHT22;15176;50.844;4.412;2022-11-20T07:45:22;9.70;99.90
27795;DHT22;15176;50.844;4.412;2022-11-20T07:47:49;9.70;99.90
27795;DHT22;15176;50.844;4.412;2022-11-20T07:50:16;9.00;99.90
27795;DHT22;15176;50.844;4.412;2022-11-20T07:52:42;8.90;99.90
27795;DHT22;15176;50.844;4.412;2022-11-20T07:55:09;9.00;99.90
27795;DHT22;15176;50.844;4.412;2022-11-20T07:57:35;9.00;99.90
27795;DHT22;15176;50.844;4.412;2022-11-20T08:00:02;9.10;99.90
27795;DHT22;15176;50.844;4.412;2022-11-20T08:02:29;9.30;99.90
27795;DHT22;15176;50.844;4.412;2022-11-20T08:04:54;9.00;99.90
27795;DHT22;15176;50.844;4.412;2022-11-20T08:07:20;8.70;99.90
27795;DHT22;15176;50.844;4.412;2022-11-20T08:09:46;8.50;99.90
27795;DHT22;15176;50.844;4.412;2022-11-20T08:12:19;8.50;99.90
27795;DHT22;15176;50.844;4.412;2022-11-20T08:15:05;8.50;99.90
27795;DHT22;15176;50.844;4.412;2022-11-20T08:17:31;8.40;99.90
27795;DHT22;15176;50.844;4.412;2022-11-20T08:19:57;8.10;99.90
27795;DHT22;15176;50.844;4.412;2022-11-20T08:22:23;8.10;99.90
27795;DHT22;15176;50.844;4.412;2022-11-20T08:24:50;8.50;99.90
27795;DHT22;15176;50.844;4.412;2022-11-20T08:27:15;8.70;99.90
27795;DHT22;15176;50.844;4.412;2022-11-20T08:29:41;8.50;99.90
27795;DHT22;15176;50.844;4.412;2022-11-20T08:32:08;8.80;99.90
27795;DHT22;15176;50.844;4.412;2022-11-20T08:34:34;9.00;99.90
27795;DHT22;15176;50.844;4.412;2022-11-20T08:37:02;9.10;99.90
27795;DHT22;15176;50.844;4.412;2022-11-20T08:39:28;8.80;99.90
27795;DHT22;15176;50.844;4.412;2022-11-20T08:41:53;8.70;99.90
27795;DHT22;15176;50.844;4.412;2022-11-20T08:44:19;8.70;99.90
27795;DHT22;15176;50.844;4.412;2022-11-20T08:46:45;8.90;99.90
27795;DHT22;15176;50.844;4.412;2022-11-20T08:49:13;8.90;99.90
27795;DHT22;15176;50.844;4.412;2022-11-20T08:51:40;8.90;99.90
27795;DHT22;15176;50.844;4.412;2022-11-20T08:54:07;8.60;99.90
27795;DHT22;15176;50.844;4.412;2022-11-20T08:56:34;8.90;99.90
27795;DHT22;15176;50.844;4.412;2022-11-20T08:59:00;8.80;99.90
27795;DHT22;15176;50.844;4.412;2022-11-20T09:01:26;8.60;99.90
27795;DHT22;15176;50.844;4.412;2022-11-20T09:03:51;8.50;99.90
27795;DHT22;15176;50.844;4.412;2022-11-20T09:06:18;8.50;99.90
27795;DHT22;15176;50.844;4.412;2022-11-20T09:08:43;8.70;99.90
27795;DHT22;15176;50.844;4.412;2022-11-20T09:11:09;8.90;99.90
27795;DHT22;15176;50.844;4.412;2022-11-20T09:13:36;9.10;99.90
27795;DHT22;15176;50.844;4.412;2022-11-20T09:16:07;9.10;99.90
27795;DHT22;15176;50.844;4.412;2022-11-20T09:18:33;9.00;99.90
27795;DHT22;15176;50.844;4.412;2022-11-20T09:21:11;8.90;99.90
27795;DHT22;15176;50.844;4.412;2022-11-20T09:23:38;9.00;99.90
27795;DHT22;15176;50.844;4.412;2022-11-20T09:26:05;9.50;99.90
27795;DHT22;15176;50.844;4.412;2022-11-20T09:28:31;9.60;99.90
27795;DHT22;15176;50.844;4.412;2022-11-20T09:30:58;9.30;99.90
27795;DHT22;15176;50.844;4.412;2022-11-20T09:33:23;9.20;99.90
27795;DHT22;15176;50.844;4.412;2022-11-20T09:35:49;9.00;99.90
27795;DHT22;15176;50.844;4.412;2022-11-20T09:38:17;8.90;99.90
27795;DHT22;15176;50.844;4.412;2022-11-20T09:41:04;9.10;99.90
27795;DHT22;15176;50.844;4.412;2022-11-20T09:51:57;9.90;99.90
27795;DHT22;15176;50.844;4.412;2022-11-20T09:54:31;9.80;99.90
27795;DHT22;15176;50.844;4.412;2022-11-20T09:57:25;9.70;99.90
27795;DHT22;15176;50.844;4.412;2022-11-20T09:59:50;9.70;99.90
27795;DHT22;15176;50.844;4.412;2022-11-20T10:02:19;9.90;99.90
27795;DHT22;15176;50.844;4.412;2022-11-20T10:04:55;10.30;99.90
27795;DHT22;15176;50.844;4.412;2022-11-20T10:07:44;10.20;99.90
27795;DHT22;15176;50.844;4.412;2022-11-20T10:10:19;10.40;99.90
27795;DHT22;15176;50.844;4.412;2022-11-20T10:15:47;10.30;99.90
27795;DHT22;15176;50.844;4.412;2022-11-20T10:29:19;10.20;99.90
27795;DHT22;15176;50.844;4.412;2022-11-20T10:32:20;10.00;99.90
27795;DHT22;15176;50.844;4.412;2022-11-20T10:35:48;10.20;99.90
27795;DHT22;15176;50.844;4.412;2022-11-20T10:37:53;10.60;99.90
27795;DHT22;15176;50.844;4.412;2022-11-20T10:40:43;10.60;99.90
27795;DHT22;15176;50.844;4.412;2022-11-20T10:43:36;10.60;99.90
27795;DHT22;15176;50.844;4.412;2022-11-20T10:46:10;10.90;99.90
27795;DHT22;15176;50.844;4.412;2022-11-20T10:48:38;11.20;99.90
27795;DHT22;15176;50.844;4.412;2022-11-20T10:56:40;11.20;99.90
27795;DHT22;15176;50.844;4.412;2022-11-20T11:01:57;10.90;99.90
27795;DHT22;15176;50.844;4.412;2022-11-20T11:07:21;11.20;99.90
27795;DHT22;15176;50.844;4.412;2022-11-20T11:09:50;11.40;99.90
27795;DHT22;15176;50.844;4.412;2022-11-20T11:12:18;10.90;99.90
27795;DHT22;15176;50.844;4.412;2022-11-20T11:14:57;10.90;99.90
27795;DHT22;15176;50.844;4.412;2022-11-20T11:17:31;10.60;99.90
27795;DHT22;15176;50.844;4.412;2022-11-20T11:22:48;11.00;99.90
27795;DHT22;15176;50.844;4.412;2022-11-20T11:27:53;10.80;99.90
27795;DHT22;15176;50.844;4.412;2022-11-20T11:30:22;10.80;99.90
27795;DHT22;15176;50.844;4.412;2022-11-20T11:32:48;10.90;99.90
27795;DHT22;15176;50.844;4.412;2022-11-20T11:35:26;11.00;99.90
27795;DHT22;15176;50.844;4.412;2022-11-20T11:37:54;11.10;99.90
27795;DHT22;15176;50.844;4.412;2022-11-20T11:40:32;10.90;99.90
27795;DHT22;15176;50.844;4.412;2022-11-20T11:43:05;10.70;99.90
27795;DHT22;15176;50.844;4.412;2022-11-20T11:45:54;10.40;99.90
27795;DHT22;15176;50.844;4.412;2022-11-20T11:48:22;10.50;99.90
27795;DHT22;15176;50.844;4.412;2022-11-20T11:50:49;10.30;99.90
27795;DHT22;15176;50.844;4.412;2022-11-20T11:53:21;10.20;99.90
27795;DHT22;15176;50.844;4.412;2022-11-20T11:58:44;10.40;99.90
27795;DHT22;15176;50.844;4.412;2022-11-20T12:04:05;10.90;99.90
27795;DHT22;15176;50.844;4.412;2022-11-20T12:06:36;10.80;99.90
27795;DHT22;15176;50.844;4.412;2022-11-20T12:09:08;11.10;99.90
27795;DHT22;15176;50.844;4.412;2022-11-20T12:11:58;10.90;99.90
27795;DHT22;15176;50.844;4.412;2022-11-20T12:14:34;10.80;99.90
27795;DHT22;15176;50.844;4.412;2022-11-20T12:17:04;10.30;99.90
27795;DHT22;15176;50.844;4.412;2022-11-20T12:19:31;10.10;99.90
27795;DHT22;15176;50.844;4.412;2022-11-20T12:22:22;10.00;99.90
27795;DHT22;15176;50.844;4.412;2022-11-20T12:28:01;9.80;99.90
27795;DHT22;15176;50.844;4.412;2022-11-20T12:30:27;9.50;99.90
27795;DHT22;15176;50.844;4.412;2022-11-20T12:45:42;9.90;99.90
27795;DHT22;15176;50.844;4.412;2022-11-20T13:01:52;9.60;99.90
27795;DHT22;15176;50.844;4.412;2022-11-20T13:07:03;10.10;99.90
27795;DHT22;15176;50.844;4.412;2022-11-20T13:09:31;10.00;99.90
27795;DHT22;15176;50.844;4.412;2022-11-20T13:15:08;10.30;99.90
27795;DHT22;15176;50.844;4.412;2022-11-20T13:18:00;10.10;99.90
27795;DHT22;15176;50.844;4.412;2022-11-20T13:20:27;9.80;99.90
27795;DHT22;15176;50.844;4.412;2022-11-20T13:22:55;9.60;99.90
27795;DHT22;15176;50.844;4.412;2022-11-20T13:25:27;9.60;99.90
27795;DHT22;15176;50.844;4.412;2022-11-20T13:27:55;9.60;99.90
27795;DHT22;15176;50.844;4.412;2022-11-20T13:30:23;9.80;99.90
27795;DHT22;15176;50.844;4.412;2022-11-20T13:38:14;10.00;99.90
27795;DHT22;15176;50.844;4.412;2022-11-20T13:40:57;9.90;99.90
27795;DHT22;15176;50.844;4.412;2022-11-20T13:43:28;10.00;99.90
27795;DHT22;15176;50.844;4.412;2022-11-20T13:45:56;9.70;99.90
27795;DHT22;15176;50.844;4.412;2022-11-20T13:48:26;9.50;99.90
27795;DHT22;15176;50.844;4.412;2022-11-20T13:50:58;9.90;99.90
27795;DHT22;15176;50.844;4.412;2022-11-20T13:56:43;9.50;99.90
27795;DHT22;15176;50.844;4.412;2022-11-20T13:59:43;9.50;99.90
27795;DHT22;15176;50.844;4.412;2022-11-20T14:02:18;9.60;99.90
27795;DHT22;15176;50.844;4.412;2022-11-20T14:04:48;9.90;99.90
27795;DHT22;15176;50.844;4.412;2022-11-20T14:07:16;9.80;99.90
27795;DHT22;15176;50.844;4.412;2022-11-20T14:09:51;9.70;99.90
27795;DHT22;15176;50.844;4.412;2022-11-20T14:12:20;9.90;99.90
27795;DHT22;15176;50.844;4.412;2022-11-20T14:14:51;10.10;99.90
27795;DHT22;15176;50.844;4.412;2022-11-20T14:19:57;9.90;99.90
27795;DHT22;15176;50.844;4.412;2022-11-20T14:22:27;9.60;99.90
27795;DHT22;15176;50.844;4.412;2022-11-20T14:28:03;9.60;99.90
27795;DHT22;15176;50.844;4.412;2022-11-20T14:30:49;9.70;99.90
27795;DHT22;15176;50.844;4.412;2022-11-20T14:33:15;9.90;99.90
27795;DHT22;15176;50.844;4.412;2022-11-20T14:35:52;10.20;99.90
27795;DHT22;15176;50.844;4.412;2022-11-20T14:38:22;10.10;99.90
27795;DHT22;15176;50.844;4.412;2022-11-20T14:40:49;9.60;99.90
27795;DHT22;15176;50.844;4.412;2022-11-20T14:43:26;9.70;99.90
27795;DHT22;15176;50.844;4.412;2022-11-20T14:46:04;9.90;99.90
27795;DHT22;15176;50.844;4.412;2022-11-20T14:48:34;10.00;99.90
27795;DHT22;15176;50.844;4.412;2022-11-20T14:51:01;9.90;99.90
27795;DHT22;15176;50.844;4.412;2022-11-20T14:53:26;10.20;99.90
27795;DHT22;15176;50.844;4.412;2022-11-20T14:56:00;10.00;99.90
27795;DHT22;15176;50.844;4.412;2022-11-20T14:58:31;9.90;99.90
27795;DHT22;15176;50.844;4.412;2022-11-20T15:01:03;10.10;99.90
27795;DHT22;15176;50.844;4.412;2022-11-20T15:03:37;10.10;99.90
27795;DHT22;15176;50.844;4.412;2022-11-20T15:06:05;10.20;99.90
27795;DHT22;15176;50.844;4.412;2022-11-20T15:08:32;10.20;99.90
27795;DHT22;15176;50.844;4.412;2022-11-20T15:10:58;9.90;99.90
27795;DHT22;15176;50.844;4.412;2022-11-20T15:13:33;9.90;99.90
27795;DHT22;15176;50.844;4.412;2022-11-20T15:16:17;9.80;99.90
27795;DHT22;15176;50.844;4.412;2022-11-20T15:18:43;9.70;99.90
27795;DHT22;15176;50.844;4.412;2022-11-20T15:21:14;10.00;99.90
27795;DHT22;15176;50.844;4.412;2022-11-20T15:23:41;9.80;99.90
27795;DHT22;15176;50.844;4.412;2022-11-20T15:26:08;9.90;99.90
27795;DHT22;15176;50.844;4.412;2022-11-20T15:28:36;10.00;99.90
27795;DHT22;15176;50.844;4.412;2022-11-20T15:31:05;9.90;99.90
27795;DHT22;15176;50.844;4.412;2022-11-20T15:33:33;9.90;99.90
27795;DHT22;15176;50.844;4.412;2022-11-20T15:35:59;10.00;99.90
27795;DHT22;15176;50.844;4.412;2022-11-20T15:38:25;10.10;99.90
27795;DHT22;15176;50.844;4.412;2022-11-20T15:40:51;10.30;99.90
27795;DHT22;15176;50.844;4.412;2022-11-20T15:43:17;10.10;99.90
27795;DHT22;15176;50.844;4.412;2022-11-20T15:45:53;10.30;99.90
27795;DHT22;15176;50.844;4.412;2022-11-20T15:48:52;10.40;99.90
27795;DHT22;15176;50.844;4.412;2022-11-20T15:51:43;10.20;99.90
27795;DHT22;15176;50.844;4.412;2022-11-20T15:54:14;10.20;99.90
27795;DHT22;15176;50.844;4.412;2022-11-20T15:56:41;10.00;99.90
27795;DHT22;15176;50.844;4.412;2022-11-20T15:59:06;9.90;99.90
27795;DHT22;15176;50.844;4.412;2022-11-20T16:01:32;10.20;99.90
27795;DHT22;15176;50.844;4.412;2022-11-20T16:03:59;10.10;99.90
27795;DHT22;15176;50.844;4.412;2022-11-20T16:06:25;10.20;99.90
27795;DHT22;15176;50.844;4.412;2022-11-20T16:08:51;10.00;99.90
27795;DHT22;15176;50.844;4.412;2022-11-20T16:11:20;10.00;99.90
27795;DHT22;15176;50.844;4.412;2022-11-20T16:13:49;10.20;99.90
27795;DHT22;15176;50.844;4.412;2022-11-20T16:16:36;10.20;99.90
27795;DHT22;15176;50.844;4.412;2022-11-20T16:19:03;10.20;99.90
27795;DHT22;15176;50.844;4.412;2022-11-20T16:21:31;10.10;99.90
27795;DHT22;15176;50.844;4.412;2022-11-20T16:23:58;10.00;99.90
27795;DHT22;15176;50.844;4.412;2022-11-20T16:26:24;10.00;99.90
27795;DHT22;15176;50.844;4.412;2022-11-20T16:28:50;9.90;99.90
27795;DHT22;15176;50.844;4.412;2022-11-20T16:31:17;9.90;99.90
27795;DHT22;15176;50.844;4.412;2022-11-20T16:33:48;10.10;99.90
27795;DHT22;15176;50.844;4.412;2022-11-20T16:36:14;10.10;99.90
27795;DHT22;15176;50.844;4.412;2022-11-20T16:38:42;10.10;99.90
27795;DHT22;15176;50.844;4.412;2022-11-20T16:41:08;10.00;99.90
27795;DHT22;15176;50.844;4.412;2022-11-20T16:43:56;10.10;99.90
27795;DHT22;15176;50.844;4.412;2022-11-20T16:46:25;10.00;99.90
27795;DHT22;15176;50.844;4.412;2022-11-20T16:51:19;10.00;99.90
27795;DHT22;15176;50.844;4.412;2022-11-20T16:53:45;10.20;99.90
27795;DHT22;15176;50.844;4.412;2022-11-20T16:56:12;10.30;99.90
27795;DHT22;15176;50.844;4.412;2022-11-20T16:58:46;10.40;99.90
27795;DHT22;15176;50.844;4.412;2022-11-20T17:01:17;10.20;99.90
27795;DHT22;15176;50.844;4.412;2022-11-20T17:03:46;10.40;99.90
27795;DHT22;15176;50.844;4.412;2022-11-20T17:06:21;10.30;99.90
27795;DHT22;15176;50.844;4.412;2022-11-20T17:08:47;10.20;99.90
27795;DHT22;15176;50.844;4.412;2022-11-20T17:11:17;10.20;99.90
27795;DHT22;15176;50.844;4.412;2022-11-20T17:13:44;10.30;99.90
27795;DHT22;15176;50.844;4.412;2022-11-20T17:16:12;10.60;99.90
27795;DHT22;15176;50.844;4.412;2022-11-20T17:18:38;10.80;99.90
27795;DHT22;15176;50.844;4.412;2022-11-20T17:21:04;10.80;99.90
27795;DHT22;15176;50.844;4.412;2022-11-20T17:23:38;10.90;99.90
27795;DHT22;15176;50.844;4.412;2022-11-20T17:26:17;10.90;99.90
27795;DHT22;15176;50.844;4.412;2022-11-20T17:28:45;11.00;99.90
27795;DHT22;15176;50.844;4.412;2022-11-20T17:31:13;11.00;99.90
27795;DHT22;15176;50.844;4.412;2022-11-20T17:33:42;11.00;99.90
27795;DHT22;15176;50.844;4.412;2022-11-20T17:36:10;10.90;99.90
27795;DHT22;15176;50.844;4.412;2022-11-20T17:38:36;10.70;99.90